Main page
METAR-TAF:

METAR-TAF

Airports :

Federico García Lorca Airport

Granada, Spain

latitude: 37-11N, longitude: 003-47W, elevation: 567 m

Current weather observation

The report was made 28 minutes ago, at 23:30 UTC
Calm wind
Temperature 15°C
Humidity 51%
Pressure 1019 hPa
Visibility 10 km or more

METAR: LEGR 222330Z AUTO 00000KT 9999 NCD 15/05 Q1019

Time: 01:58 (23:58 UTC)

Forecast

The report was made 3 hours and 58 minutes ago, at 20:00 UTC
Forecast valid from 22 at 21 UTC to 23 at 21 UTC
Wind 3 kt from variable directions
Visibility 10 km or more
Few clouds at a height of 5000 ft
Becoming
from 23 at 12 UTC to 23 at 14 UTC
Wind 10 kt from the South/Southwest
Becoming
from 23 at 19 UTC to 23 at 21 UTC
Wind 3 kt from variable directions

TAF: LEGR 222000Z 2221/2321 VRB03KT 9999 FEW050 TX31/2314Z TN11/2305Z BECMG 2312/2314 20010KT BECMG 2319/2321 VRB03KT

Weather observations and forecasts of more than 4000 airports (METAR and TAF reports).

The available stations are represented by yellow and red dots on the map.

Hover mouse over dot to see the name of the station.

Then click to see weather observations and forecasts.

To change the map : click on the green buttons with a black cross to zoom in, on the green button with a dash to zoom out, or on the green arrows for adjacent maps.


METAR-TAF: